Karukera — FAE7796 — position and weather

sailwx.info

Track history (hours):
 
Tides and Currents Weather Stations Pressure Air Temp Water Temp Dewpoint Dewpoint Depression Visibility Wind Speed Wind Dir Waves Ship Positions

Karukera

Last reported at 2017-Sep-10 06:45 UTC. Time now 2017-Sep-22 11:46 UTC.
Position N 46°09' W 001°10'.
Warning: this ship's position is 12 days out of date.

Length 14 m.

Type: Sailing vessel. MMSI: 227811830.

Date/timePositionNaut miles runAvg speedWind from/ knotsBaromVisibWave heightAir tempDewpointWater temp
2017-Sep-10 06:45N 46°09' W 001°10'0 0.0
2017-Sep-09 12:55N 46°09' W 001°10'0 0.0
2017-Sep-09 12:26N 46°09' W 001°10'0 0.0
2017-Sep-09 11:59N 46°09' W 001°10'0 0.0
2017-Sep-09 11:29N 46°09' W 001°10'0 0.0
2017-Sep-09 09:10N 46°09' W 001°10'0 0.0
2017-Sep-09 09:00N 46°09' W 001°10'0 0.1
2017-Sep-09 08:04N 46°09' W 001°10'0 0.0
2017-Sep-09 07:58N 46°09' W 001°10'0 0.0
2017-Sep-09 07:28N 46°09' W 001°10'0 0.0
2017-Sep-08 23:38N 46°09' W 001°10'0 0.0
2017-Sep-08 23:28N 46°09' W 001°10'0 0.0
2017-Sep-08 17:59N 46°09' W 001°10'0 0.0
2017-Sep-08 17:29N 46°09' W 001°10'0 0.9
2017-Sep-08 17:00N 46°09' W 001°11'3 6.7
2017-Sep-08 16:30N 46°08' W 001°15'4 7.5
2017-Sep-08 15:58N 46°05' W 001°19'3 0.1
2017-Sep-07 15:32N 46°02' W 001°21'0 5.2
2017-Sep-07 15:27N 46°02' W 001°20'2 4.7
2017-Sep-07 14:57N 46°02' W 001°17'2 0.3
2017-Sep-07 09:02N 46°01' W 001°15'0 6.1
2017-Sep-07 09:00N 46°01' W 001°15'3 5.9
2017-Sep-07 08:30N 46°04' W 001°16'3 5.9
2017-Sep-07 08:00N 46°07' W 001°15'3 6.7
2017-Sep-07 07:30N 46°10' W 001°15'3 6.1
2017-Sep-07 07:00N 46°12' W 001°18'3 0.1
2017-Sep-05 16:04N 46°12' W 001°22'0 0.0
2017-Sep-05 15:52N 46°12' W 001°22'0 0.4
2017-Sep-05 15:22N 46°13' W 001°22'13 7.8
2017-Sep-05 13:43N 46°22' W 001°35'2 9.6
2017-Sep-05 13:31N 46°23' W 001°37'4 8.0
2017-Sep-05 13:00N 46°26' W 001°41'1 0.5
2017-Sep-05 11:30N 46°26' W 001°41'0 0.0
2017-Sep-04 17:02N 46°26' W 001°41'0 0.0
2017-Sep-04 16:59N 46°26' W 001°41'0 0.5
2017-Sep-04 16:30N 46°26' W 001°41'3 5.7
2017-Sep-04 16:00N 46°27' W 001°45'4 7.1
2017-Sep-04 15:30N 46°28' W 001°50'3 6.4
2017-Sep-04 15:01N 46°29' W 001°54'3 6.6
2017-Sep-04 14:30N 46°32' W 001°57'3 5.9
2017-Sep-04 13:59N 46°34' W 001°59'3 6.1
2017-Sep-04 13:29N 46°36' W 002°03'48 1.0
2017-Sep-02 12:23N 47°14' W 002°47'2 5.8
2017-Sep-02 11:59N 47°16' W 002°48'3 6.0
2017-Sep-02 11:30N 47°19' W 002°50'3 6.1
2017-Sep-02 11:00N 47°21' W 002°52'3 6.5
2017-Sep-02 10:30N 47°23' W 002°56'1 0.5
2017-Sep-02 08:57N 47°23' W 002°57'0 0.0
2017-Sep-01 17:40N 47°23' W 002°57'0 0.0
2017-Sep-01 17:28N 47°23' W 002°57'0 0.0
2017-Sep-01 16:58N 47°23' W 002°57'0 0.0
2017-Sep-01 14:37N 47°23' W 002°57'0 0.0
2017-Sep-01 14:28N 47°23' W 002°57'0 0.0
2017-Sep-01 13:23N 47°23' W 002°57'0 0.0
2017-Sep-01 12:59N 47°23' W 002°57'1 1.2
2017-Sep-01 12:30N 47°24' W 002°56'3 6.9
2017-Sep-01 12:00N 47°27' W 002°58'4 7.5
2017-Sep-01 11:30N 47°30' W 002°59'3 5.4
2017-Sep-01 11:00N 47°33' W 002°60'2 4.6
2017-Sep-01 10:30N 47°35' W 003°01'0 0.5
2017-Sep-01 10:00N 47°35' W 003°02'  
Track history (hours):
 
Tides and Currents Weather Stations Pressure Air Temp Water Temp Dewpoint Dewpoint Depression Visibility Wind Speed Wind Dir Waves Ship Positions

Karukera

Last reported at 2017-Sep-10 06:45 UTC. Time now 2017-Sep-22 11:46 UTC.
Position N 46°09' W 001°10'.
Warning: this ship's position is 12 days out of date.

Length 14 m.

Type: Sailing vessel. MMSI: 227811830.

Date/timePositionNaut miles runAvg speedWind from/ knotsBaromVisibWave heightAir tempDewpointWater temp
2017-Sep-10 06:45N 46°09' W 001°10'0 0.0
2017-Sep-09 12:55N 46°09' W 001°10'0 0.0
2017-Sep-09 12:26N 46°09' W 001°10'0 0.0
2017-Sep-09 11:59N 46°09' W 001°10'0 0.0
2017-Sep-09 11:29N 46°09' W 001°10'0 0.0
2017-Sep-09 09:10N 46°09' W 001°10'0 0.0
2017-Sep-09 09:00N 46°09' W 001°10'0 0.1
2017-Sep-09 08:04N 46°09' W 001°10'0 0.0
2017-Sep-09 07:58N 46°09' W 001°10'0 0.0
2017-Sep-09 07:28N 46°09' W 001°10'0 0.0
2017-Sep-08 23:38N 46°09' W 001°10'0 0.0
2017-Sep-08 23:28N 46°09' W 001°10'0 0.0
2017-Sep-08 17:59N 46°09' W 001°10'0 0.0
2017-Sep-08 17:29N 46°09' W 001°10'0 0.9
2017-Sep-08 17:00N 46°09' W 001°11'3 6.7
2017-Sep-08 16:30N 46°08' W 001°15'4 7.5
2017-Sep-08 15:58N 46°05' W 001°19'3 0.1
2017-Sep-07 15:32N 46°02' W 001°21'0 5.2
2017-Sep-07 15:27N 46°02' W 001°20'2 4.7
2017-Sep-07 14:57N 46°02' W 001°17'2 0.3
2017-Sep-07 09:02N 46°01' W 001°15'0 6.1
2017-Sep-07 09:00N 46°01' W 001°15'3 5.9
2017-Sep-07 08:30N 46°04' W 001°16'3 5.9
2017-Sep-07 08:00N 46°07' W 001°15'3 6.7
2017-Sep-07 07:30N 46°10' W 001°15'3 6.1
2017-Sep-07 07:00N 46°12' W 001°18'3 0.1
2017-Sep-05 16:04N 46°12' W 001°22'0 0.0
2017-Sep-05 15:52N 46°12' W 001°22'0 0.4
2017-Sep-05 15:22N 46°13' W 001°22'13 7.8
2017-Sep-05 13:43N 46°22' W 001°35'2 9.6
2017-Sep-05 13:31N 46°23' W 001°37'4 8.0
2017-Sep-05 13:00N 46°26' W 001°41'1 0.5
2017-Sep-05 11:30N 46°26' W 001°41'0 0.0
2017-Sep-04 17:02N 46°26' W 001°41'0 0.0
2017-Sep-04 16:59N 46°26' W 001°41'0 0.5
2017-Sep-04 16:30N 46°26' W 001°41'3 5.7
2017-Sep-04 16:00N 46°27' W 001°45'4 7.1
2017-Sep-04 15:30N 46°28' W 001°50'3 6.4
2017-Sep-04 15:01N 46°29' W 001°54'3 6.6
2017-Sep-04 14:30N 46°32' W 001°57'3 5.9
2017-Sep-04 13:59N 46°34' W 001°59'3 6.1
2017-Sep-04 13:29N 46°36' W 002°03'48 1.0
2017-Sep-02 12:23N 47°14' W 002°47'2 5.8
2017-Sep-02 11:59N 47°16' W 002°48'3 6.0
2017-Sep-02 11:30N 47°19' W 002°50'3 6.1
2017-Sep-02 11:00N 47°21' W 002°52'3 6.5
2017-Sep-02 10:30N 47°23' W 002°56'1 0.5
2017-Sep-02 08:57N 47°23' W 002°57'0 0.0
2017-Sep-01 17:40N 47°23' W 002°57'0 0.0
2017-Sep-01 17:28N 47°23' W 002°57'0 0.0
2017-Sep-01 16:58N 47°23' W 002°57'0 0.0
2017-Sep-01 14:37N 47°23' W 002°57'0 0.0
2017-Sep-01 14:28N 47°23' W 002°57'0 0.0
2017-Sep-01 13:23N 47°23' W 002°57'0 0.0
2017-Sep-01 12:59N 47°23' W 002°57'1 1.2
2017-Sep-01 12:30N 47°24' W 002°56'3 6.9
2017-Sep-01 12:00N 47°27' W 002°58'4 7.5
2017-Sep-01 11:30N 47°30' W 002°59'3 5.4
2017-Sep-01 11:00N 47°33' W 002°60'2 4.6
2017-Sep-01 10:30N 47°35' W 003°01'0 0.5
2017-Sep-01 10:00N 47°35' W 003°02'  

Dump ship's entire track history